East Bangor, Pennsylvania
Current Conditions -  °F | °C
As of 9:51 PM on Monday 22 Dec 2014 (Local Time) from KABE Reporting Station
Haze Haze  
Wind Chill: 33°   Ceiling: 500
Heat Index: 37°   Visibility: 2.5mi
Dew Point: 34°   Wind: 5mph
Humidity: 89%   Direction: 80°E
Pressure: 30.17"   Gusts: NA
Location:  40.8463°N, 75.1731°W
Report Text: KABE 230251Z 08004KT 2 1/2SM BR OVC005 03/01 A3017 RMK AO2 SFC VIS 3 RAE49UPB39E40 SLP222 P0000 60001 T00280011 58009
Loading
Personal Weather Stations






























Interactive Weather Map New forecast layout! Learn more

10-Day Weather Forecast

Advertisements
Track Severe Weather on mobile